createdAt,value
2023-01-04T14:21:04.962Z,11.50
2023-01-04T14:23:37.635Z,11.10
2023-01-04T14:26:05.172Z,11.10
2023-01-04T14:28:34.104Z,11.00
2023-01-04T14:31:01.515Z,10.90
2023-01-04T14:33:39.132Z,10.90
2023-01-04T14:36:12.082Z,10.90
2023-01-04T14:38:45.457Z,10.80
2023-01-04T14:41:24.236Z,10.80
2023-01-04T14:44:03.857Z,10.80
2023-01-04T14:46:31.634Z,10.70
2023-01-04T14:48:59.325Z,10.60
2023-01-04T14:51:32.832Z,10.50
2023-01-04T14:54:00.015Z,10.50
2023-01-04T14:56:27.148Z,10.40
2023-01-04T14:58:54.657Z,10.40
2023-01-04T15:01:22.233Z,10.30
2023-01-04T15:03:49.534Z,10.20
2023-01-04T15:06:16.649Z,10.10
2023-01-04T15:08:43.847Z,10.00
2023-01-04T15:11:14.621Z,9.90
2023-01-04T15:13:42.497Z,9.90
2023-01-04T15:16:11.675Z,9.90
2023-01-04T15:18:39.982Z,9.70
2023-01-04T15:21:07.424Z,9.50
2023-01-04T15:23:34.384Z,9.60
2023-01-04T15:26:04.500Z,9.50
2023-01-04T15:28:32.344Z,9.40
2023-01-04T15:31:00.500Z,9.30
2023-01-04T15:33:32.558Z,9.40
2023-01-04T15:36:00.986Z,9.30
2023-01-04T15:38:28.653Z,9.30
2023-01-04T15:41:06.528Z,9.30
2023-01-04T15:43:38.190Z,9.20
2023-01-04T15:46:09.000Z,9.00
2023-01-04T15:48:36.667Z,8.90
2023-01-04T15:51:04.777Z,9.00
2023-01-04T15:53:31.800Z,8.90
2023-01-04T15:56:10.035Z,8.90
2023-01-04T15:58:37.458Z,8.70
2023-01-04T16:01:08.537Z,8.60
2023-01-04T16:03:36.247Z,8.60
2023-01-04T16:06:07.653Z,8.60
2023-01-04T16:08:34.882Z,8.60
2023-01-04T16:11:12.513Z,8.50
2023-01-04T16:13:39.708Z,8.40
2023-01-04T16:16:07.702Z,8.40
2023-01-04T16:18:35.240Z,8.40
2023-01-04T16:21:05.378Z,8.40
2023-01-04T16:23:32.670Z,8.50
2023-01-04T16:26:06.058Z,8.50
2023-01-04T16:28:33.549Z,8.40
2023-01-04T16:31:01.259Z,8.30
2023-01-04T16:33:28.935Z,8.30
2023-01-04T16:36:06.414Z,8.20
2023-01-04T16:38:40.552Z,8.20
2023-01-04T16:41:09.645Z,8.20
2023-01-04T16:43:50.643Z,8.20
2023-01-04T16:46:20.108Z,8.20
2023-01-04T16:48:48.926Z,8.10
2023-01-04T16:51:16.488Z,8.20
2023-01-04T16:53:44.077Z,8.10
2023-01-04T16:56:12.947Z,8.00
2023-01-04T16:58:40.259Z,8.10
2023-01-04T17:01:07.633Z,8.10
2023-01-04T17:03:35.150Z,8.10
2023-01-04T17:06:06.223Z,8.10
2023-01-04T17:08:33.563Z,8.00
2023-01-04T17:11:38.660Z,8.00
2023-01-04T17:13:52.381Z,8.00
2023-01-04T17:16:23.202Z,8.00
2023-01-04T17:18:51.676Z,8.00
2023-01-04T17:21:33.629Z,8.00
2023-01-04T17:24:02.305Z,8.00
2023-01-04T17:26:30.223Z,8.10
2023-01-04T17:28:58.728Z,8.00
2023-01-04T17:31:28.454Z,8.00
2023-01-04T17:33:56.092Z,7.90
2023-01-04T17:36:23.556Z,7.90
2023-01-04T17:38:51.223Z,7.90
2023-01-04T17:41:20.210Z,7.80
2023-01-04T17:43:48.319Z,7.90
2023-01-04T17:46:23.154Z,7.90
2023-01-04T17:49:20.666Z,7.90
2023-01-04T17:51:40.248Z,7.90
2023-01-04T17:54:09.914Z,7.90
2023-01-04T17:56:38.084Z,7.80
2023-01-04T17:59:07.462Z,7.80
2023-01-04T18:01:35.468Z,7.80
2023-01-04T18:04:08.484Z,7.80
2023-01-04T18:06:39.434Z,7.80
2023-01-04T18:09:08.237Z,7.80
2023-01-04T18:11:36.812Z,7.80
2023-01-04T18:14:08.172Z,7.80
2023-01-04T18:16:57.432Z,7.80
2023-01-04T18:19:30.900Z,7.70
2023-01-04T18:21:59.021Z,7.70
2023-01-04T18:24:42.371Z,7.70
2023-01-04T18:27:23.086Z,7.70
2023-01-04T18:29:52.536Z,7.60
2023-01-04T18:32:21.323Z,7.60
2023-01-04T18:34:49.421Z,7.60
2023-01-04T18:37:18.595Z,7.60
2023-01-04T18:39:46.937Z,7.60
2023-01-04T18:42:14.649Z,7.60
2023-01-04T18:44:48.542Z,7.70
2023-01-04T18:47:20.779Z,7.70
2023-01-04T18:49:49.704Z,7.60
2023-01-04T18:52:19.494Z,7.60
2023-01-04T18:54:48.994Z,7.60
2023-01-04T18:57:18.107Z,7.50
2023-01-04T18:59:52.485Z,7.50
2023-01-04T19:02:21.341Z,7.40
2023-01-04T19:04:49.524Z,7.50
2023-01-04T19:07:20.377Z,7.50
2023-01-04T19:09:47.821Z,7.50
2023-01-04T19:12:15.565Z,7.50
2023-01-04T19:14:43.494Z,7.50
2023-01-04T19:17:11.648Z,7.50
2023-01-04T19:19:40.534Z,7.40
2023-01-04T19:22:08.804Z,7.50
2023-01-04T19:24:37.210Z,7.50
2023-01-04T19:27:05.508Z,7.40
2023-01-04T19:29:35.792Z,7.40
2023-01-04T19:32:04.165Z,7.40
2023-01-04T19:34:33.932Z,7.40
2023-01-04T19:37:02.074Z,7.40
2023-01-04T19:39:30.696Z,7.40
2023-01-04T19:41:58.798Z,7.40
2023-01-04T19:44:26.972Z,7.40
2023-01-04T19:46:56.294Z,7.40
2023-01-04T19:49:25.169Z,7.40
2023-01-04T19:51:53.414Z,7.40
2023-01-04T19:54:25.163Z,7.40
2023-01-04T19:56:54.371Z,7.30
2023-01-04T19:59:23.153Z,7.30
2023-01-04T20:01:51.324Z,7.30
2023-01-04T20:04:23.911Z,7.20
2023-01-04T20:06:55.160Z,7.20
2023-01-04T20:09:27.291Z,7.20
2023-01-04T20:11:58.773Z,7.20
2023-01-04T20:14:26.977Z,7.20
2023-01-04T20:16:58.829Z,7.10
2023-01-04T20:19:27.047Z,7.10
2023-01-04T20:21:54.533Z,7.10
2023-01-04T20:24:21.924Z,7.10
2023-01-04T20:26:50.313Z,7.10
2023-01-04T20:29:20.116Z,7.10
2023-01-04T20:31:47.871Z,7.00
2023-01-04T20:34:15.196Z,7.00
2023-01-04T20:36:43.418Z,7.00
2023-01-04T20:39:11.434Z,7.00
2023-01-04T20:41:58.949Z,7.00
2023-01-04T20:44:27.199Z,6.90
2023-01-04T20:46:54.712Z,6.80
2023-01-04T20:49:22.529Z,6.80
2023-01-04T20:51:50.401Z,6.70
2023-01-04T20:54:18.327Z,6.70
2023-01-04T20:56:45.965Z,6.80
2023-01-04T20:59:15.268Z,6.80
2023-01-04T21:01:43.322Z,6.80
2023-01-04T21:04:10.800Z,6.80
2023-01-04T21:06:41.223Z,6.80
2023-01-04T21:09:09.245Z,6.70
2023-01-04T21:11:37.041Z,6.70
2023-01-04T21:14:04.564Z,6.70
2023-01-04T21:16:32.207Z,6.70
2023-01-04T21:18:59.804Z,6.60
2023-01-04T21:21:27.351Z,6.60
2023-01-04T21:23:58.096Z,6.60
2023-01-04T21:26:28.606Z,6.60
2023-01-04T21:28:56.646Z,6.60
2023-01-04T21:31:24.858Z,6.50
2023-01-04T21:33:52.631Z,6.50
2023-01-04T21:36:20.931Z,6.40
2023-01-04T21:38:49.329Z,6.50
2023-01-04T21:41:17.023Z,6.40
2023-01-04T21:43:44.831Z,6.40
2023-01-04T21:46:14.026Z,6.40
2023-01-04T21:48:41.848Z,6.40
2023-01-04T21:51:09.148Z,6.40
2023-01-04T21:53:36.929Z,6.50
2023-01-04T21:56:08.261Z,6.40
2023-01-04T21:58:35.581Z,6.40
2023-01-04T22:01:08.253Z,6.40
2023-01-04T22:03:35.263Z,6.30
2023-01-04T22:06:03.287Z,6.30
2023-01-04T22:08:30.649Z,6.30
2023-01-04T22:10:57.869Z,6.30
2023-01-04T22:13:25.551Z,6.30
2023-01-04T22:15:52.821Z,6.30
2023-01-04T22:18:19.943Z,6.30
2023-01-04T22:20:46.903Z,6.20
2023-01-04T22:23:14.064Z,6.20
2023-01-04T22:25:41.249Z,6.30
2023-01-04T22:28:08.261Z,6.30
2023-01-04T22:30:37.756Z,6.20
2023-01-04T22:33:05.015Z,6.20
2023-01-04T22:35:31.867Z,6.20
2023-01-04T22:37:59.051Z,6.00
2023-01-04T22:40:26.601Z,5.90
2023-01-04T22:42:53.730Z,6.00
2023-01-04T22:45:20.959Z,6.00
2023-01-04T22:47:47.893Z,6.00
2023-01-04T22:50:15.040Z,6.10
2023-01-04T22:52:45.807Z,6.00
2023-01-04T22:55:16.032Z,6.10
2023-01-04T22:57:43.593Z,6.00
2023-01-04T23:00:10.977Z,6.00
2023-01-04T23:02:37.900Z,6.00
2023-01-04T23:05:05.127Z,6.00
2023-01-04T23:07:32.131Z,6.00
2023-01-04T23:09:59.017Z,5.90
2023-01-04T23:12:26.032Z,5.90
2023-01-04T23:14:53.013Z,5.90
2023-01-04T23:17:19.948Z,5.80
2023-01-04T23:19:46.883Z,5.80
2023-01-04T23:22:14.091Z,5.80
2023-01-04T23:24:41.141Z,5.80
2023-01-04T23:27:08.020Z,5.80
2023-01-04T23:29:35.070Z,5.80
2023-01-04T23:32:02.058Z,5.80
2023-01-04T23:34:30.410Z,5.70
2023-01-04T23:36:57.398Z,5.80
2023-01-04T23:39:24.470Z,5.80
2023-01-04T23:41:52.346Z,5.80
2023-01-04T23:47:08.247Z,5.70
2023-01-04T23:49:36.606Z,5.70
2023-01-04T23:52:04.708Z,5.70
2023-01-04T23:54:31.817Z,5.60
2023-01-04T23:56:59.783Z,5.60
2023-01-04T23:59:27.094Z,5.60
